Kezdőlap
METAR-TAF:

METAR-TAF

Repülőterek :

Manchester, New Hampshire, Amerikai Egyesült Államok

földrajzi szélesség: 42-55-45N, földrajzi hosszúság: 071-26-09W, magasság: 71 m

Jelenlegi meteorológiai megfigyelések

A jelentés 30 perccel ezelõtt készült, 17:53 UTC
Dél-délnyugati szél 7 kt, dél-délkeleti és délnyugati között változik
Hőmérséklet 10°C
Páratartalom 32%
Légköri nyomás 1018 hPa
Látótávolság: 16.1 km
Kevés felhő 25000 lábon

METAR: KMHT 231753Z 20007KT 160V230 10SM FEW250 10/M06 A3005 RMK AO2 SLP191 T01001056 10100 21044 58023

Idő: 13:23 (18:23 UTC)

Előrejelzés

A jelentés 52 perccel ezelõtt készült, 17:31 UTC
Az előrejelzés 23-én 18 óra UTC és 24-én 18 óra UTC között érvényes
Nyugati szél 5 kt
Látótávolság: 10 km
Kevés felhő 25000 lábon

TAF: KMHT 231731Z 2318/2418 27005KT P6SM FEW250

Meteorológiai megfigyelések és előrejelzések több, mint 4000 repülőtéren (METAR és TAF jelentéseket).

A térképen piros és sárga pontok jelzik az elérhető meteorológiai állomásokat.

Mozgassa az egeret a pont fölött, hogy megjelenjen az állomás neve.

Azután kattintson az időjárási megfigyelések és előrejelzések megtekintéséhez.

A térkép megváltoztatása: kattintson a fekete keresztel jelölt zöld gombra ráközelítéshez, a vonallal jelölt zöld gombra távolításhoz, vagy a zöld nyilakra a szomszédos térképek eléréséhez.


METAR-TAF: